Time;durP1;ratioP1;P1;durP2;ratioP2;P2;SDS_P1;SDS_P2;PMS_P1;PMS_P2;Temp;Humidity;BMP_temperature;BMP_pressure;BME280_temperature;BME280_humidity;BME280_pressure;Samples;Min_cycle;Max_cycle;Signal;HPM_P1;HPM_P2
2022/05/31 00:01:42;;;;;;;8.55;2.97;;;20.40;94.80;;;;;;5014757;28;20026;-72
2022/05/31 00:04:08;;;;;;;11.88;3.05;;;20.40;95.00;;;;;;5015438;28;20026;-72
2022/05/31 00:06:34;;;;;;;12.32;3.30;;;20.50;95.10;;;;;;5015808;28;20048;-72
2022/05/31 00:08:59;;;;;;;8.27;2.95;;;20.60;95.40;;;;;;5016120;28;20109;-72
2022/05/31 00:11:25;;;;;;;10.35;3.50;;;20.60;95.50;;;;;;5016772;28;20037;-71
2022/05/31 00:13:51;;;;;;;10.18;2.58;;;20.70;95.30;;;;;;5015496;28;20042;-71
2022/05/31 00:16:17;;;;;;;8.48;3.00;;;20.70;94.60;;;;;;5015189;28;20029;-71
2022/05/31 00:18:43;;;;;;;9.65;3.15;;;20.70;95.10;;;;;;5016833;28;20461;-71
2022/05/31 00:21:10;;;;;;;8.57;3.38;;;20.70;95.20;;;;;;5017115;28;20022;-71
2022/05/31 00:23:40;;;;;;;7.03;2.65;;;20.60;95.10;;;;;;5016785;28;20394;-71
2022/05/31 00:26:06;;;;;;;11.32;3.10;;;20.70;94.70;;;;;;5016992;28;20030;-71
2022/05/31 00:28:32;;;;;;;5.55;2.40;;;20.70;94.30;;;;;;5014666;28;20026;-71
2022/05/31 00:30:58;;;;;;;8.52;3.10;;;20.80;93.40;;;;;;5016586;28;20038;-71
2022/05/31 00:33:25;;;;;;;7.82;2.72;;;20.80;92.20;;;;;;5016677;28;20045;-71
2022/05/31 00:35:53;;;;;;;9.20;3.58;;;20.70;92.50;;;;;;5016417;28;20375;-71
2022/05/31 00:38:20;;;;;;;8.95;3.05;;;20.80;91.80;;;;;;5015106;28;20034;-71
2022/05/31 00:40:46;;;;;;;8.05;2.42;;;20.80;91.60;;;;;;5014705;28;20112;-71
2022/05/31 00:43:22;;;;;;;10.68;2.72;;;20.70;91.20;;;;;;5014433;28;20049;-71
2022/05/31 00:45:54;;;;;;;9.95;2.55;;;20.70;90.60;;;;;;5014829;28;20050;-71
2022/05/31 00:48:33;;;;;;;6.15;2.72;;;20.60;90.90;;;;;;5015114;28;20045;-71
2022/05/31 00:51:08;;;;;;;6.45;2.50;;;20.50;90.40;;;;;;5015268;28;20540;-72
2022/05/31 00:53:41;;;;;;;7.90;2.80;;;20.20;93.90;;;;;;5014951;28;20465;-72
2022/05/31 00:56:18;;;;;;;7.93;2.90;;;20.20;94.60;;;;;;5001706;28;20037;-72
2022/05/31 00:58:54;;;;;;;7.95;3.08;;;20.30;94.80;;;;;;5014089;28;20038;-72
2022/05/31 01:01:20;;;;;;;9.45;3.20;;;20.20;95.10;;;;;;5012759;28;20517;-72
2022/05/31 01:03:47;;;;;;;7.95;2.85;;;20.30;95.50;;;;;;5014741;28;20417;-72
2022/05/31 01:06:14;;;;;;;8.55;3.25;;;20.30;95.70;;;;;;5014584;28;20033;-72
2022/05/31 01:08:45;;;;;;;9.95;2.80;;;20.20;96.00;;;;;;5014449;28;20034;-72
2022/05/31 01:11:20;;;;;;;7.10;3.28;;;20.20;96.20;;;;;;5014916;28;20069;-72
2022/05/31 01:13:46;;;;;;;11.68;3.28;;;19.80;98.50;;;;;;5013768;28;20036;-71
2022/05/31 01:16:13;;;;;;;10.35;3.50;;;19.50;99.90;;;;;;5011844;28;20033;-72
2022/05/31 01:18:40;;;;;;;8.07;3.40;;;19.30;99.90;;;;;;5015813;28;20026;-72
2022/05/31 01:21:06;;;;;;;7.32;3.15;;;19.20;99.90;;;;;;5029630;28;20256;-71
2022/05/31 01:23:45;;;;;;;11.35;3.85;;;19.40;99.90;;;;;;5014210;28;20030;-72
2022/05/31 01:26:28;;;;;;;8.88;3.10;;;19.40;99.90;;;;;;5001587;28;20033;-71
2022/05/31 01:29:17;;;;;;;10.25;3.80;;;19.50;99.90;;;;;;5013956;28;20021;-71
2022/05/31 01:31:58;;;;;;;7.88;3.60;;;19.50;99.90;;;;;;5011510;28;20089;-72
2022/05/31 01:34:24;;;;;;;13.98;4.45;;;19.40;99.90;;;;;;5011798;28;20064;-71
2022/05/31 01:36:53;;;;;;;9.68;4.07;;;19.30;99.90;;;;;;5030450;28;20061;-72
2022/05/31 01:39:48;;;;;;;7.80;3.67;;;19.40;99.90;;;;;;5015521;28;20104;-72
2022/05/31 01:42:21;;;;;;;9.93;3.45;;;19.40;99.90;;;;;;5013376;28;20026;-72
2022/05/31 01:44:58;;;;;;;11.27;3.88;;;19.40;99.90;;;;;;5003398;28;20104;-71
2022/05/31 01:47:24;;;;;;;7.88;3.80;;;19.50;99.90;;;;;;5014232;28;20065;-71
2022/05/31 01:49:53;;;;;;;6.60;3.40;;;19.50;99.90;;;;;;5014124;28;20034;-72
2022/05/31 01:52:21;;;;;;;12.00;3.97;;;19.70;99.90;;;;;;5013248;28;20117;-72
2022/05/31 01:54:47;;;;;;;12.60;4.30;;;19.70;99.90;;;;;;5013750;28;20041;-71
2022/05/31 01:57:15;;;;;;;9.70;4.28;;;19.50;99.90;;;;;;5014892;28;20465;-71
2022/05/31 01:59:46;;;;;;;10.88;3.97;;;19.40;99.90;;;;;;5013690;28;20068;-71
2022/05/31 02:02:15;;;;;;;11.60;4.28;;;19.40;99.90;;;;;;5013825;28;20022;-71
2022/05/31 02:04:42;;;;;;;12.43;4.38;;;19.50;99.90;;;;;;5012447;28;20022;-71
2022/05/31 02:07:11;;;;;;;10.15;4.65;;;19.40;99.90;;;;;;5015202;28;20069;-71
2022/05/31 02:09:37;;;;;;;9.95;3.70;;;19.40;99.90;;;;;;5014636;28;20064;-72
2022/05/31 02:12:08;;;;;;;8.40;4.05;;;19.50;99.90;;;;;;5014295;28;20437;-71
2022/05/31 02:14:34;;;;;;;11.65;4.43;;;19.50;99.90;;;;;;5012977;28;20029;-72
2022/05/31 02:17:00;;;;;;;9.13;4.10;;;19.50;99.90;;;;;;5014070;28;20533;-72
2022/05/31 02:19:27;;;;;;;7.72;3.95;;;19.50;99.90;;;;;;5013164;28;20057;-71
2022/05/31 02:21:55;;;;;;;9.85;4.10;;;19.70;99.90;;;;;;5014709;28;20055;-72
2022/05/31 02:24:22;;;;;;;8.32;4.25;;;19.70;99.90;;;;;;5013830;28;20132;-72
2022/05/31 02:26:48;;;;;;;10.25;4.82;;;19.60;99.90;;;;;;5013158;28;20037;-71
2022/05/31 02:29:17;;;;;;;7.85;3.80;;;19.40;99.90;;;;;;5013747;28;20092;-71
2022/05/31 02:31:44;;;;;;;9.30;4.38;;;19.60;99.90;;;;;;5011879;28;20499;-71
2022/05/31 02:34:12;;;;;;;13.43;4.78;;;19.40;99.90;;;;;;5014860;28;20034;-71
2022/05/31 02:36:38;;;;;;;8.57;4.47;;;19.40;99.90;;;;;;5012598;28;20513;-71
2022/05/31 02:39:04;;;;;;;10.77;4.80;;;19.50;99.90;;;;;;5013242;28;20490;-71
2022/05/31 02:41:31;;;;;;;7.82;4.43;;;19.50;99.90;;;;;;5012909;28;20026;-71
2022/05/31 02:43:57;;;;;;;8.63;4.78;;;19.40;99.90;;;;;;5013377;28;20093;-72
2022/05/31 02:46:24;;;;;;;12.90;5.00;;;19.40;99.90;;;;;;5012957;28;20026;-71
2022/05/31 02:48:50;;;;;;;9.60;4.55;;;19.40;99.90;;;;;;5012715;28;20502;-72
2022/05/31 02:51:16;;;;;;;11.68;4.88;;;19.30;99.90;;;;;;5014171;28;20096;-72
2022/05/31 02:53:42;;;;;;;9.90;5.10;;;19.40;99.90;;;;;;5014462;28;20034;-72
2022/05/31 02:56:08;;;;;;;8.50;4.85;;;19.40;99.90;;;;;;5014231;28;20121;-72
2022/05/31 02:58:34;;;;;;;10.27;5.18;;;19.40;99.90;;;;;;5027310;28;20120;-71
2022/05/31 03:01:00;;;;;;;12.18;5.35;;;19.40;99.90;;;;;;5012809;28;20108;-71
2022/05/31 03:03:26;;;;;;;9.75;5.50;;;19.30;99.90;;;;;;5012653;28;20034;-71
2022/05/31 03:05:53;;;;;;;9.35;5.43;;;19.40;99.90;;;;;;5012692;28;20030;-71
2022/05/31 03:08:19;;;;;;;12.40;5.78;;;19.40;99.90;;;;;;5013078;28;20065;-71
2022/05/31 03:10:50;;;;;;;10.65;5.80;;;19.40;99.90;;;;;;5012520;28;20057;-71
2022/05/31 03:13:20;;;;;;;10.32;5.63;;;19.60;99.90;;;;;;5010808;28;20029;-71
2022/05/31 03:15:47;;;;;;;13.10;6.60;;;19.60;99.90;;;;;;5007438;28;20033;-71
2022/05/31 03:18:16;;;;;;;15.25;5.63;;;19.60;99.90;;;;;;5012752;28;20065;-71
2022/05/31 03:20:48;;;;;;;12.82;6.25;;;19.60;99.90;;;;;;5012545;28;20112;-71
2022/05/31 03:23:37;;;;;;;12.82;6.03;;;19.50;99.90;;;;;;5012837;28;20491;-71
2022/05/31 03:26:08;;;;;;;9.75;5.30;;;19.70;99.90;;;;;;5005492;28;20036;-71
2022/05/31 03:28:36;;;;;;;8.35;5.47;;;19.60;99.90;;;;;;5011704;28;20033;-71
2022/05/31 03:31:02;;;;;;;10.73;6.53;;;19.60;99.90;;;;;;5012761;28;20061;-71
2022/05/31 03:33:28;;;;;;;12.30;5.40;;;19.60;99.90;;;;;;5012940;28;20073;-71
2022/05/31 03:35:54;;;;;;;10.50;5.97;;;19.70;99.90;;;;;;5013964;28;20126;-71
2022/05/31 03:38:20;;;;;;;15.35;7.03;;;19.70;99.90;;;;;;5016610;28;20116;-71
2022/05/31 03:40:58;;;;;;;13.90;6.57;;;19.70;99.90;;;;;;5016133;28;20557;-71
2022/05/31 03:43:33;;;;;;;11.07;6.65;;;19.80;99.90;;;;;;5015180;28;20080;-71
2022/05/31 03:45:59;;;;;;;9.38;6.68;;;19.70;99.90;;;;;;5018284;28;20124;-72
2022/05/31 03:48:25;;;;;;;10.52;6.38;;;19.60;99.90;;;;;;5017728;28;20069;-72
2022/05/31 03:50:59;;;;;;;13.20;6.55;;;19.70;99.90;;;;;;5017456;28;20041;-72
2022/05/31 03:53:24;;;;;;;;;;;19.50;99.90;;;;;;5032532;28;20406;-71
2022/05/31 03:55:50;;;;;;;14.65;7.25;;;19.40;99.90;;;;;;5015709;28;19909;-71
2022/05/31 03:58:16;;;;;;;11.25;6.50;;;19.30;99.90;;;;;;5015350;28;20091;-71
2022/05/31 04:00:42;;;;;;;11.23;6.57;;;19.30;99.90;;;;;;5015125;28;20026;-71
2022/05/31 04:03:08;;;;;;;12.20;7.03;;;19.30;99.90;;;;;;5031196;28;20108;-71
2022/05/31 04:05:34;;;;;;;18.08;7.10;;;19.30;99.90;;;;;;5015865;28;20471;-71
2022/05/31 04:08:08;;;;;;;9.55;6.40;;;19.30;99.90;;;;;;5013608;28;20398;-72
2022/05/31 04:10:35;;;;;;;14.38;7.25;;;19.30;99.90;;;;;;5011182;28;20156;-72
2022/05/31 04:13:02;;;;;;;11.15;7.00;;;19.30;99.90;;;;;;5100052;22;20471;-75
2022/05/31 04:15:28;;;;;;;17.33;8.30;;;19.20;99.90;;;;;;4998523;28;20069;-75
2022/05/31 04:17:54;;;;;;;14.60;7.90;;;19.20;99.90;;;;;;4998065;28;20034;-75
2022/05/31 04:20:20;;;;;;;11.80;7.88;;;19.30;99.90;;;;;;4996434;28;20438;-75
2022/05/31 04:22:46;;;;;;;17.13;10.32;;;19.30;99.90;;;;;;4995934;28;20041;-75
2022/05/31 04:25:12;;;;;;;14.95;10.23;;;19.30;99.90;;;;;;4992467;28;20023;-75
2022/05/31 04:27:38;;;;;;;19.23;14.13;;;19.30;99.90;;;;;;4997946;28;20034;-75
2022/05/31 04:30:04;;;;;;;17.35;13.65;;;19.50;99.90;;;;;;4997600;28;20037;-75
2022/05/31 04:32:30;;;;;;;15.27;10.60;;;19.40;99.90;;;;;;4998358;28;20026;-75
2022/05/31 04:34:56;;;;;;;13.93;11.57;;;19.40;99.90;;;;;;4997283;28;20028;-76
2022/05/31 04:37:22;;;;;;;19.88;14.05;;;19.30;99.90;;;;;;4994775;28;20113;-75
2022/05/31 04:39:48;;;;;;;19.20;15.07;;;19.20;99.90;;;;;;4998161;28;20151;-75
2022/05/31 04:42:14;;;;;;;17.50;14.07;;;19.30;99.90;;;;;;4997725;28;20034;-76
2022/05/31 04:44:39;;;;;;;18.55;12.15;;;19.40;99.90;;;;;;4997691;28;20109;-75
2022/05/31 04:47:06;;;;;;;12.88;9.88;;;19.40;99.90;;;;;;4996428;28;20553;-75
2022/05/31 04:49:32;;;;;;;12.77;7.28;;;19.40;99.90;;;;;;4993965;28;20030;-76
2022/05/31 04:51:58;;;;;;;13.38;7.20;;;19.30;99.90;;;;;;4997393;28;20039;-75
2022/05/31 04:54:24;;;;;;;11.80;6.10;;;19.40;99.90;;;;;;4997576;28;20022;-76
2022/05/31 04:56:52;;;;;;;13.50;7.07;;;19.20;99.90;;;;;;4997532;28;20407;-75
2022/05/31 04:59:19;;;;;;;15.20;7.68;;;18.60;99.90;;;;;;4997854;28;20026;-70
2022/05/31 05:01:44;;;;;;;12.13;6.63;;;18.50;99.90;;;;;;4993917;28;20039;-72
2022/05/31 05:04:11;;;;;;;11.55;6.45;;;18.60;99.90;;;;;;4995987;28;20046;-70
2022/05/31 05:06:37;;;;;;;9.48;5.88;;;18.80;99.90;;;;;;4996382;28;20026;-69
2022/05/31 05:09:03;;;;;;;7.80;5.38;;;18.90;99.90;;;;;;4996591;28;20113;-69
2022/05/31 05:11:32;;;;;;;10.85;5.97;;;18.80;99.90;;;;;;4995179;28;20509;-69
2022/05/31 05:13:58;;;;;;;12.95;5.90;;;19.00;99.90;;;;;;4995336;28;20495;-69
2022/05/31 05:16:25;;;;;;;12.68;5.75;;;19.20;99.90;;;;;;4989989;28;20595;-69
2022/05/31 05:18:51;;;;;;;12.93;5.22;;;19.00;99.90;;;;;;4996941;28;20456;-69
2022/05/31 05:21:17;;;;;;;16.15;6.65;;;18.90;99.90;;;;;;4991660;28;20033;-69
2022/05/31 05:23:43;;;;;;;9.60;5.03;;;19.00;99.90;;;;;;4990147;28;20022;-69
2022/05/31 05:26:10;;;;;;;10.65;5.40;;;19.10;99.90;;;;;;4988124;28;20032;-69
2022/05/31 05:31:27;;;;;;;;;;;19.20;99.90;;;;;;4982441;28;20063;-69
2022/05/31 05:33:57;;;;;;;12.05;5.72;;;19.30;99.90;;;;;;4988255;28;19928;-69
2022/05/31 05:36:23;;;;;;;12.15;5.43;;;19.20;99.90;;;;;;4986181;28;20541;-69
2022/05/31 05:38:50;;;;;;;8.73;5.07;;;19.20;99.90;;;;;;4987987;28;20798;-69
2022/05/31 05:41:17;;;;;;;10.30;6.03;;;19.40;99.90;;;;;;4988787;28;20164;-69
2022/05/31 05:43:42;;;;;;;9.20;4.93;;;19.40;99.90;;;;;;4986384;28;20030;-69
2022/05/31 05:46:19;;;;;;;10.18;5.45;;;19.40;99.90;;;;;;4981881;28;20412;-69
2022/05/31 05:48:45;;;;;;;10.82;5.50;;;19.40;99.90;;;;;;4986281;28;20399;-69
2022/05/31 05:51:17;;;;;;;12.35;6.00;;;19.50;99.90;;;;;;4985553;28;20377;-69
2022/05/31 05:53:43;;;;;;;16.40;7.45;;;19.60;99.90;;;;;;4987173;28;20034;-68
2022/05/31 05:56:09;;;;;;;19.83;7.93;;;19.60;99.90;;;;;;4984980;28;20033;-67
2022/05/31 05:58:35;;;;;;;19.05;7.82;;;19.70;99.90;;;;;;4981855;28;20033;-68
2022/05/31 06:01:02;;;;;;;15.02;7.10;;;19.70;99.90;;;;;;4985887;28;20030;-68
2022/05/31 06:03:34;;;;;;;19.10;7.45;;;19.70;99.90;;;;;;4989692;28;20026;-67
2022/05/31 06:06:00;;;;;;;14.05;7.82;;;19.80;99.90;;;;;;4995682;28;20050;-68
2022/05/31 06:08:32;;;;;;;13.00;8.02;;;19.80;99.90;;;;;;4996275;28;20562;-68
2022/05/31 06:11:30;;;;;;;15.43;8.20;;;19.80;99.90;;;;;;4995339;28;20034;-68
2022/05/31 06:14:15;;;;;;;15.82;8.30;;;19.70;99.90;;;;;;4976741;28;20053;-68
2022/05/31 06:16:45;;;;;;;17.83;8.68;;;19.60;99.90;;;;;;4990310;28;20033;-68
2022/05/31 06:19:18;;;;;;;21.88;10.30;;;19.70;99.90;;;;;;4994368;28;20023;-69
2022/05/31 06:21:46;;;;;;;25.37;11.50;;;19.50;99.90;;;;;;4996218;28;20031;-68
2022/05/31 06:24:12;;;;;;;21.65;11.38;;;19.50;99.90;;;;;;4995931;28;20701;-68
2022/05/31 06:26:39;;;;;;;25.30;11.32;;;19.60;99.90;;;;;;4995448;28;20030;-68
2022/05/31 06:29:05;;;;;;;24.80;11.40;;;19.70;99.90;;;;;;4995619;28;20499;-68
2022/05/31 06:31:31;;;;;;;30.88;12.80;;;19.80;99.90;;;;;;4988890;28;20165;-68
2022/05/31 06:33:56;;;;;;;26.63;12.63;;;19.80;99.90;;;;;;4990612;28;20449;-69
2022/05/31 06:36:22;;;;;;;22.15;11.40;;;19.80;99.90;;;;;;4992714;28;20031;-68
2022/05/31 06:38:48;;;;;;;25.88;11.40;;;19.70;99.90;;;;;;4990295;28;20030;-68
2022/05/31 06:41:14;;;;;;;24.48;11.55;;;19.70;99.90;;;;;;4991121;28;20018;-69
2022/05/31 06:43:40;;;;;;;29.20;11.40;;;19.70;99.90;;;;;;4988092;28;20023;-68
2022/05/31 06:46:10;;;;;;;29.52;11.77;;;19.70;99.90;;;;;;4988165;28;20042;-69
2022/05/31 06:48:36;;;;;;;26.38;11.02;;;19.80;99.90;;;;;;4989638;28;20018;-68
2022/05/31 06:51:04;;;;;;;25.77;10.45;;;19.90;99.90;;;;;;4991471;28;20404;-69
2022/05/31 06:58:58;;;;;;;23.45;11.50;;;19.90;99.90;;;;;;4985584;28;20047;-69
2022/05/31 07:01:37;;;;;;;21.83;10.60;;;20.00;99.90;;;;;;4990117;28;20528;-71
2022/05/31 07:04:04;;;;;;;21.20;9.23;;;20.10;99.90;;;;;;4990830;28;20035;-68
2022/05/31 07:06:32;;;;;;;18.77;8.80;;;20.20;99.90;;;;;;4991229;28;20042;-69
2022/05/31 07:08:59;;;;;;;18.38;9.07;;;20.40;99.90;;;;;;4990978;28;20026;-70
2022/05/31 07:11:25;;;;;;;18.73;8.60;;;20.30;99.90;;;;;;4987641;28;20606;-71
2022/05/31 07:13:51;;;;;;;18.15;8.85;;;20.50;99.90;;;;;;4991343;28;20034;-69
2022/05/31 07:16:17;;;;;;;18.75;8.85;;;20.40;99.90;;;;;;4990993;28;20038;-70
2022/05/31 07:18:43;;;;;;;17.20;8.45;;;20.50;99.90;;;;;;4992657;28;20046;-70
2022/05/31 07:21:09;;;;;;;16.17;7.55;;;20.50;99.90;;;;;;4992316;28;20527;-70
2022/05/31 07:23:35;;;;;;;14.63;7.18;;;20.50;99.90;;;;;;4993595;28;20045;-70
2022/05/31 07:26:04;;;;;;;15.50;5.93;;;20.50;99.90;;;;;;4978738;28;20018;-70
2022/05/31 07:28:30;;;;;;;15.43;7.38;;;20.60;99.90;;;;;;4989260;28;20061;-70
2022/05/31 07:30:56;;;;;;;15.13;6.38;;;20.60;99.90;;;;;;4991861;28;20116;-70
2022/05/31 07:33:22;;;;;;;15.25;6.25;;;20.70;99.90;;;;;;4989936;28;20026;-70
2022/05/31 07:35:49;;;;;;;20.80;7.78;;;20.90;99.90;;;;;;4989000;28;20040;-70
2022/05/31 07:38:16;;;;;;;15.73;7.22;;;20.90;99.90;;;;;;4988827;28;20022;-70
2022/05/31 07:40:44;;;;;;;15.18;6.53;;;21.10;99.90;;;;;;4991945;28;20411;-70
2022/05/31 07:43:10;;;;;;;16.08;6.45;;;21.30;99.90;;;;;;4991111;28;20036;-70
2022/05/31 07:45:36;;;;;;;22.63;6.22;;;21.40;99.90;;;;;;4989559;28;20513;-70
2022/05/31 07:48:02;;;;;;;19.00;6.15;;;21.40;99.90;;;;;;4991556;28;20031;-70
2022/05/31 07:50:28;;;;;;;14.77;5.90;;;21.40;99.90;;;;;;4990416;28;20153;-70
2022/05/31 07:52:54;;;;;;;11.98;4.70;;;21.50;99.90;;;;;;4991723;28;20121;-70
2022/05/31 07:55:20;;;;;;;12.13;4.32;;;21.70;99.70;;;;;;4993128;28;20191;-69
2022/05/31 08:00:30;;;;;;;;;;;21.80;96.20;;;;;;4989997;28;20037;-70
2022/05/31 08:02:56;;;;;;;12.80;3.67;;;21.80;95.70;;;;;;4990056;28;19924;-70
2022/05/31 08:05:22;;;;;;;13.27;3.88;;;21.80;93.50;;;;;;4989754;28;20031;-70
2022/05/31 08:07:49;;;;;;;13.43;4.20;;;21.90;93.70;;;;;;4992552;28;20023;-70
2022/05/31 08:10:17;;;;;;;11.63;3.65;;;21.90;93.00;;;;;;4991587;28;20042;-70
2022/05/31 08:12:42;;;;;;;14.40;5.13;;;21.60;91.60;;;;;;4988466;28;20086;-70
2022/05/31 08:15:10;;;;;;;9.95;3.55;;;21.70;91.30;;;;;;4990976;28;20054;-70
2022/05/31 08:17:36;;;;;;;20.50;6.03;;;21.70;90.30;;;;;;4989973;28;20073;-70
2022/05/31 08:20:06;;;;;;;14.07;4.50;;;21.80;91.10;;;;;;4989890;28;20487;-70
2022/05/31 08:22:33;;;;;;;15.25;3.85;;;21.90;87.30;;;;;;4992644;28;20108;-70
2022/05/31 08:24:59;;;;;;;13.00;4.32;;;22.10;86.70;;;;;;4990499;28;20026;-70
2022/05/31 08:27:25;;;;;;;8.63;3.25;;;22.20;81.90;;;;;;4989478;28;20504;-70
2022/05/31 08:29:51;;;;;;;10.63;3.60;;;22.30;80.10;;;;;;4990302;28;20033;-70
2022/05/31 08:32:17;;;;;;;13.18;4.50;;;22.40;77.80;;;;;;4990355;28;20077;-70
2022/05/31 08:34:43;;;;;;;15.48;4.70;;;22.00;76.40;;;;;;4992100;28;20077;-70
2022/05/31 08:37:09;;;;;;;12.48;4.13;;;22.00;77.20;;;;;;4993303;28;20034;-70
2022/05/31 08:39:35;;;;;;;13.32;4.57;;;22.10;81.10;;;;;;4989492;28;20054;-70
2022/05/31 08:42:09;;;;;;;11.50;3.50;;;22.10;82.80;;;;;;4988374;28;20061;-70
2022/05/31 08:45:03;;;;;;;12.32;3.88;;;22.40;79.40;;;;;;4990434;28;20490;-70
2022/05/31 08:47:58;;;;;;;11.65;3.90;;;22.50;76.40;;;;;;4978420;28;20030;-70
2022/05/31 08:53:46;;;;;;;11.82;4.35;;;22.40;82.60;;;;;;4979324;28;20064;-69
2022/05/31 08:59:09;;;;;;;9.68;2.80;;;22.60;75.90;;;;;;4990163;28;20045;-70
2022/05/31 09:01:47;;;;;;;6.47;2.80;;;22.40;76.60;;;;;;4993048;28;20029;-70
2022/05/31 09:04:25;;;;;;;6.40;3.15;;;22.50;75.80;;;;;;4992203;28;20034;-70
2022/05/31 09:06:53;;;;;;;7.90;3.00;;;22.60;78.00;;;;;;4988852;28;20030;-70
2022/05/31 09:09:24;;;;;;;7.28;3.15;;;22.60;78.50;;;;;;4987814;28;20046;-70
2022/05/31 09:11:54;;;;;;;11.25;3.38;;;22.60;82.50;;;;;;4988463;28;20072;-69
2022/05/31 09:14:25;;;;;;;9.77;2.92;;;22.80;82.60;;;;;;4989277;28;20031;-70
2022/05/31 09:17:29;;;;;;;11.60;3.25;;;23.00;81.80;;;;;;4990495;28;20022;-70
2022/05/31 09:20:00;;;;;;;;;;;23.10;80.60;;;;;;4949090;29;20048;-70
2022/05/31 09:22:26;;;;;;;9.73;2.60;;;23.10;76.40;;;;;;4949704;29;19946;-68
2022/05/31 09:24:51;;;;;;;7.45;2.50;;;22.90;74.50;;;;;;4947079;29;20039;-70
2022/05/31 09:27:47;;;;;;;10.02;2.72;;;22.90;74.50;;;;;;4943913;29;20139;-69
2022/05/31 09:30:34;;;;;;;9.60;3.05;;;23.20;75.40;;;;;;4946986;28;20058;-68
2022/05/31 09:33:39;;;;;;;12.23;3.15;;;23.20;77.50;;;;;;4948311;28;20031;-71
2022/05/31 09:36:17;;;;;;;10.45;3.42;;;23.20;77.10;;;;;;4930996;29;20115;-70
2022/05/31 09:39:02;;;;;;;8.07;3.45;;;23.20;78.80;;;;;;4939340;29;20027;-71
2022/05/31 09:41:58;;;;;;;11.75;3.38;;;23.10;80.40;;;;;;4949146;29;20046;-70
2022/05/31 09:44:40;;;;;;;17.63;4.20;;;23.30;78.70;;;;;;4945413;28;20076;-71
2022/05/31 09:47:16;;;;;;;11.30;4.10;;;23.40;81.50;;;;;;4947582;28;20024;-71
2022/05/31 09:49:46;;;;;;;22.25;6.78;;;23.50;83.90;;;;;;4949582;29;20575;-70
2022/05/31 09:52:38;;;;;;;12.60;5.28;;;23.60;86.70;;;;;;4949943;29;20035;-70
2022/05/31 09:58:13;;;;;;;14.70;5.70;;;23.50;88.30;;;;;;4988901;28;20045;-71
2022/05/31 10:01:11;;;;;;;13.43;4.97;;;23.50;88.90;;;;;;4989791;28;20542;-71
2022/05/31 10:03:48;;;;;;;14.90;5.22;;;23.80;87.50;;;;;;4987417;28;20122;-70
2022/05/31 10:06:27;;;;;;;10.32;4.38;;;23.80;87.70;;;;;;4985969;28;20589;-71
2022/05/31 10:08:55;;;;;;;11.48;4.10;;;23.80;84.60;;;;;;4987255;28;20042;-70
2022/05/31 10:11:37;;;;;;;14.02;4.03;;;23.90;84.60;;;;;;4987086;28;20065;-71
2022/05/31 10:14:15;;;;;;;9.77;3.75;;;24.00;81.20;;;;;;4985825;28;20050;-71
2022/05/31 10:16:42;;;;;;;9.25;3.70;;;24.00;83.40;;;;;;4990026;28;20046;-70
2022/05/31 10:19:22;;;;;;;12.98;3.80;;;24.00;84.10;;;;;;4988327;28;20033;-71
2022/05/31 10:21:48;;;;;;;11.38;3.88;;;24.20;81.50;;;;;;4986842;28;20069;-75
2022/05/31 10:27:09;;;;;;;12.48;3.83;;;24.10;83.60;;;;;;5000356;22;20109;-69
2022/05/31 10:29:51;;;;;;;15.77;3.90;;;24.00;82.50;;;;;;4992427;28;20033;-70
2022/05/31 10:32:41;;;;;;;9.95;3.65;;;23.90;83.40;;;;;;4996253;28;20122;-68
2022/05/31 10:35:27;;;;;;;12.35;4.35;;;24.00;84.50;;;;;;4970921;28;20101;-69
2022/05/31 10:38:14;;;;;;;13.40;3.45;;;24.20;83.40;;;;;;4987711;28;20449;-70
2022/05/31 10:40:49;;;;;;;6.70;2.20;;;24.50;84.60;;;;;;4987327;28;20499;-70
2022/05/31 10:43:18;;;;;;;12.30;2.20;;;24.50;78.40;;;;;;4994407;28;20030;-70
2022/05/31 10:45:44;;;;;;;7.93;1.98;;;24.70;78.10;;;;;;4991476;28;20076;-70
2022/05/31 10:48:10;;;;;;;6.20;2.17;;;24.80;79.10;;;;;;4990683;28;20027;-70
2022/05/31 10:50:56;;;;;;;6.30;2.15;;;24.70;79.50;;;;;;4991254;28;20092;-70
2022/05/31 10:53:44;;;;;;;6.80;2.00;;;24.70;78.90;;;;;;4978770;28;20042;-70
2022/05/31 10:56:58;;;;;;;6.70;2.05;;;24.60;79.20;;;;;;4970174;28;20803;-68
2022/05/31 11:00:14;;;;;;;7.28;1.85;;;24.70;79.40;;;;;;4909543;29;20056;-70
2022/05/31 11:03:01;;;;;;;7.80;2.35;;;24.90;76.10;;;;;;4900910;29;20099;-69
2022/05/31 11:05:55;;;;;;;6.82;1.70;;;24.90;73.80;;;;;;4910264;29;20124;-68
2022/05/31 11:11:30;;;;;;;13.00;2.55;;;24.80;72.10;;;;;;4908595;29;19926;-69
2022/05/31 11:13:59;;;;;;;7.20;1.85;;;24.80;72.30;;;;;;4909686;29;20801;-68
2022/05/31 11:16:27;;;;;;;4.82;2.00;;;25.10;71.40;;;;;;4911604;29;20052;-68
2022/05/31 11:19:08;;;;;;;5.50;2.03;;;24.90;71.70;;;;;;4918879;29;20036;-68
2022/05/31 11:21:41;;;;;;;4.35;2.25;;;24.90;71.30;;;;;;4913022;29;20097;-70
2022/05/31 11:24:14;;;;;;;6.43;2.27;;;25.10;70.20;;;;;;4910277;29;20048;-71
2022/05/31 11:27:02;;;;;;;7.43;2.08;;;25.00;70.70;;;;;;4910469;29;20131;-70
2022/05/31 11:30:15;;;;;;;9.38;1.85;;;24.90;70.10;;;;;;4908615;29;20543;-70
2022/05/31 11:32:59;;;;;;;7.57;2.30;;;25.00;71.20;;;;;;4857590;29;20041;-71
2022/05/31 11:35:56;;;;;;;5.40;1.80;;;25.30;69.60;;;;;;4875794;29;20525;-69
2022/05/31 11:38:33;;;;;;;7.55;1.73;;;25.30;69.30;;;;;;4907137;29;20561;-71
2022/05/31 11:41:16;;;;;;;5.18;1.55;;;25.40;68.70;;;;;;4910766;29;20059;-70
2022/05/31 11:44:18;;;;;;;8.23;1.80;;;25.10;68.20;;;;;;4923251;29;20032;-70
2022/05/31 11:46:50;;;;;;;7.03;1.90;;;25.20;68.10;;;;;;4908426;29;20028;-70
2022/05/31 11:49:37;;;;;;;7.80;2.40;;;25.40;69.00;;;;;;4912160;29;20446;-70
2022/05/31 11:52:18;;;;;;;6.60;2.00;;;25.30;69.40;;;;;;4898366;29;20051;-69
2022/05/31 11:57:56;;;;;;;6.88;1.88;;;25.00;67.30;;;;;;4905608;29;20095;-68
2022/05/31 12:00:22;;;;;;;5.50;1.88;;;25.20;67.10;;;;;;4908659;29;20527;-68
2022/05/31 12:03:42;;;;;;;6.28;2.15;;;25.30;65.60;;;;;;4918168;28;20176;-69
2022/05/31 12:06:13;;;;;;;7.40;1.80;;;24.90;66.30;;;;;;4916839;29;20031;-69
2022/05/31 12:08:45;;;;;;;7.07;1.80;;;25.20;66.10;;;;;;4931812;29;20067;-69
2022/05/31 12:11:26;;;;;;;6.72;1.40;;;25.30;66.50;;;;;;4932725;29;20528;-69
2022/05/31 12:13:53;;;;;;;4.57;1.60;;;25.20;66.00;;;;;;4931628;29;20598;-70
2022/05/31 12:16:20;;;;;;;7.85;2.08;;;25.30;64.60;;;;;;4916619;29;20067;-69
2022/05/31 12:18:56;;;;;;;9.07;1.85;;;25.60;64.30;;;;;;4934380;29;20103;-69
2022/05/31 12:21:46;;;;;;;10.23;2.13;;;25.50;63.30;;;;;;4912546;29;20035;-68
2022/05/31 12:24:40;;;;;;;44.53;4.50;;;25.70;62.30;;;;;;4931356;29;20019;-70
2022/05/31 12:27:28;;;;;;;12.77;3.03;;;25.80;62.40;;;;;;4927607;29;20044;-69
2022/05/31 12:30:17;;;;;;;33.60;4.05;;;25.60;62.50;;;;;;4927588;29;20155;-70
2022/05/31 12:32:45;;;;;;;14.35;2.70;;;25.50;62.30;;;;;;4927743;29;20044;-70
2022/05/31 12:35:31;;;;;;;41.80;5.45;;;25.40;62.40;;;;;;4927571;29;20130;-71
2022/05/31 12:38:03;;;;;;;6.07;1.70;;;25.60;64.60;;;;;;4920727;29;20182;-70
2022/05/31 12:40:34;;;;;;;14.73;2.20;;;25.90;63.10;;;;;;4928798;29;20087;-70
2022/05/31 12:43:09;;;;;;;6.68;1.73;;;25.70;64.80;;;;;;4988564;28;20037;-70
2022/05/31 12:45:34;;;;;;;7.32;1.95;;;25.70;64.80;;;;;;5006821;28;20069;-70
2022/05/31 12:48:24;;;;;;;6.22;1.50;;;25.80;65.40;;;;;;4987068;28;20061;-70
2022/05/31 12:51:08;;;;;;;4.07;1.58;;;25.70;65.50;;;;;;4977280;28;20038;-69
2022/05/31 12:53:37;;;;;;;7.75;2.10;;;25.90;65.50;;;;;;4985734;28;20034;-70
2022/05/31 12:56:08;;;;;;;7.65;1.60;;;25.50;64.90;;;;;;4991532;28;20037;-69
2022/05/31 12:58:43;;;;;;;7.90;1.60;;;25.60;64.70;;;;;;4989493;28;20023;-69
2022/05/31 13:01:11;;;;;;;8.25;1.98;;;25.60;65.20;;;;;;4992450;28;20026;-67
2022/05/31 13:03:40;;;;;;;6.18;2.00;;;25.60;66.30;;;;;;4987207;28;20061;-69
2022/05/31 13:06:34;;;;;;;6.30;1.73;;;25.60;66.30;;;;;;4986321;28;20030;-69
2022/05/31 13:09:13;;;;;;;6.47;1.83;;;25.60;66.00;;;;;;4985378;28;20038;-68
2022/05/31 13:20:42;;;;;;;6.18;2.08;;;25.40;68.60;;;;;;4988135;28;20092;-70
2022/05/31 13:23:14;;;;;;;3.67;1.63;;;25.30;68.90;;;;;;5004046;28;20022;-69
2022/05/31 13:26:02;;;;;;;6.20;1.92;;;25.30;68.30;;;;;;4988032;28;20415;-68
2022/05/31 13:28:42;;;;;;;7.82;1.90;;;25.50;69.10;;;;;;4987800;28;20026;-68
2022/05/31 13:31:15;;;;;;;6.78;1.73;;;25.50;69.00;;;;;;4986891;28;20144;-69
2022/05/31 13:33:42;;;;;;;6.10;1.90;;;25.60;66.90;;;;;;4988835;28;20423;-70
2022/05/31 13:36:17;;;;;;;5.32;1.50;;;25.40;67.80;;;;;;4993288;28;20030;-69
2022/05/31 13:38:46;;;;;;;8.57;1.60;;;25.60;68.10;;;;;;4991232;28;20387;-71
2022/05/31 13:41:15;;;;;;;9.80;1.83;;;25.80;68.20;;;;;;4991141;28;20041;-69
2022/05/31 13:43:50;;;;;;;7.75;1.88;;;25.80;67.10;;;;;;4990205;28;20041;-70